Upperglade, West Virginia
Current Conditions -  °F | °C
As of 3:15 AM on Tuesday 27 Jan 2015 (Local Time) from KLWB Reporting Station
Light Snow Light Snow  
Wind Chill: 16°   Ceiling: 2300
Heat Index: 23°   Visibility: 10mi
Dew Point: 15°   Wind: 6mph
Humidity: 71%   Direction: 290°WNW
Pressure: 29.76"   Gusts: NA
Location:  38.41°N, 80.51°W
Report Text: KLWB 270815Z AUTO 29005KT 10SM -SN OVC023 M05/M09 A2976 RMK AO2 T10481093
Loading
Personal Weather Stations






























Interactive Weather Map New forecast layout! Learn more

10-Day Weather Forecast

Advertisements
Track Severe Weather on mobile